Bila Tserkva, Ukraine
Current Conditions -  °F | °C
As of 9:00 PM on Monday 24 Nov 2014 (Local Time) from UKKK Reporting Station
Haze Haze  
Wind Chill: 15°   Ceiling: Unl
Heat Index: 21°   Visibility: 3mi
Dew Point: 19°   Wind: 4mph
Humidity: 93%   Direction: 90°E
Pressure: 30.56"   Gusts: NA
Location:  49.78°N, 30.12°E
Report Text: UKKK 241800Z 09002MPS 5000 BR SCT009 M06/M07 Q1035 08810355 NOSIG
Loading
Personal Weather Stations






























Interactive Weather Map New forecast layout! Learn more

10-Day Weather Forecast

Advertisements
Track Severe Weather on mobile